sensor_id;sensor_type;location;lat;lon;timestamp;pressure;altitude;pressure_sealevel;temperature
71897;BMP280;59767;51.344;12.362;2023-02-15T00:00:12;159474.47;;;3.33
71897;BMP280;59767;51.344;12.362;2023-02-15T00:03:17;159477.06;;;3.34
71897;BMP280;59767;51.344;12.362;2023-02-15T00:06:21;159490.09;;;3.39
71897;BMP280;59767;51.344;12.362;2023-02-15T00:09:25;159497.94;;;3.42
71897;BMP280;59767;51.344;12.362;2023-02-15T00:12:29;159505.69;;;3.45
71897;BMP280;59767;51.344;12.362;2023-02-15T00:15:33;159500.53;;;3.43
71897;BMP280;59767;51.344;12.362;2023-02-15T00:18:39;159482.28;;;3.36
71897;BMP280;59767;51.344;12.362;2023-02-15T00:21:43;159503.09;;;3.44
71897;BMP280;59767;51.344;12.362;2023-02-15T00:24:47;159479.66;;;3.35
71897;BMP280;59767;51.344;12.362;2023-02-15T00:27:51;159477.06;;;3.34
71897;BMP280;59767;51.344;12.362;2023-02-15T00:31:04;159480.97;;;3.36
71897;BMP280;59767;51.344;12.362;2023-02-15T00:34:20;159473.16;;;3.33
71897;BMP280;59767;51.344;12.362;2023-02-15T00:37:25;159477.06;;;3.34
71897;BMP280;59767;51.344;12.362;2023-02-15T00:40:29;159466.63;;;3.30
71897;BMP280;59767;51.344;12.362;2023-02-15T00:43:35;159464.00;;;3.29
71897;BMP280;59767;51.344;12.362;2023-02-15T00:46:39;159461.41;;;3.28
71897;BMP280;59767;51.344;12.362;2023-02-15T00:49:43;159457.50;;;3.27
71897;BMP280;59767;51.344;12.362;2023-02-15T00:52:47;159443.13;;;3.21
71897;BMP280;59767;51.344;12.362;2023-02-15T00:55:52;159428.84;;;3.16
71897;BMP280;59767;51.344;12.362;2023-02-15T00:58:56;159427.53;;;3.15
71897;BMP280;59767;51.344;12.362;2023-02-15T01:02:00;159423.63;;;3.14
71897;BMP280;59767;51.344;12.362;2023-02-15T01:05:05;159424.94;;;3.14
71897;BMP280;59767;51.344;12.362;2023-02-15T01:08:09;159437.94;;;3.19
71897;BMP280;59767;51.344;12.362;2023-02-15T01:11:17;159413.22;;;3.10
71897;BMP280;59767;51.344;12.362;2023-02-15T01:14:28;159408.00;;;3.08
71897;BMP280;59767;51.344;12.362;2023-02-15T01:17:32;159413.22;;;3.10
71897;BMP280;59767;51.344;12.362;2023-02-15T01:20:39;159398.84;;;3.04
71897;BMP280;59767;51.344;12.362;2023-02-15T01:23:44;159402.75;;;3.06
71897;BMP280;59767;51.344;12.362;2023-02-15T01:26:48;159415.81;;;3.11
71897;BMP280;59767;51.344;12.362;2023-02-15T01:29:52;159398.84;;;3.04
71897;BMP280;59767;51.344;12.362;2023-02-15T01:32:57;159396.25;;;3.03
71897;BMP280;59767;51.344;12.362;2023-02-15T01:36:02;159389.72;;;3.01
71897;BMP280;59767;51.344;12.362;2023-02-15T01:39:06;159364.94;;;2.91
71897;BMP280;59767;51.344;12.362;2023-02-15T01:42:11;159349.34;;;2.85
71897;BMP280;59767;51.344;12.362;2023-02-15T01:45:31;159358.50;;;2.89
71897;BMP280;59767;51.344;12.362;2023-02-15T01:48:42;159351.94;;;2.86
71897;BMP280;59767;51.344;12.362;2023-02-15T01:51:48;159327.16;;;2.77
71897;BMP280;59767;51.344;12.362;2023-02-15T01:54:53;159316.75;;;2.73
71897;BMP280;59767;51.344;12.362;2023-02-15T01:57:58;159315.44;;;2.72
71897;BMP280;59767;51.344;12.362;2023-02-15T02:01:03;159289.41;;;2.62
71897;BMP280;59767;51.344;12.362;2023-02-15T02:04:13;159294.56;;;2.64
71897;BMP280;59767;51.344;12.362;2023-02-15T02:07:20;159306.31;;;2.69
71897;BMP280;59767;51.344;12.362;2023-02-15T02:10:25;159302.41;;;2.67
71897;BMP280;59767;51.344;12.362;2023-02-15T02:13:29;159299.81;;;2.66
71897;BMP280;59767;51.344;12.362;2023-02-15T02:17:02;159290.66;;;2.63
71897;BMP280;59767;51.344;12.362;2023-02-15T02:30:29;159284.22;;;2.60
71897;BMP280;59767;51.344;12.362;2023-02-15T02:37:03;159299.81;;;2.66
71897;BMP280;59767;51.344;12.362;2023-02-15T02:43:48;159288.06;;;2.62
71897;BMP280;59767;51.344;12.362;2023-02-15T02:50:06;159286.75;;;2.61
71897;BMP280;59767;51.344;12.362;2023-02-15T02:53:11;159269.84;;;2.55
71897;BMP280;59767;51.344;12.362;2023-02-15T02:56:37;159263.38;;;2.52
71897;BMP280;59767;51.344;12.362;2023-02-15T02:59:45;159251.63;;;2.48
71897;BMP280;59767;51.344;12.362;2023-02-15T03:02:54;159256.81;;;2.50
71897;BMP280;59767;51.344;12.362;2023-02-15T03:06:09;159242.50;;;2.44
71897;BMP280;59767;51.344;12.362;2023-02-15T03:09:20;159259.44;;;2.51
71897;BMP280;59767;51.344;12.362;2023-02-15T03:12:29;159263.38;;;2.52
71897;BMP280;59767;51.344;12.362;2023-02-15T03:15:38;159242.50;;;2.44
71897;BMP280;59767;51.344;12.362;2023-02-15T03:22:21;159262.03;;;2.52
71897;BMP280;59767;51.344;12.362;2023-02-15T03:25:31;159243.81;;;2.45
71897;BMP280;59767;51.344;12.362;2023-02-15T03:28:43;159238.59;;;2.43
71897;BMP280;59767;51.344;12.362;2023-02-15T03:32:00;159263.38;;;2.52
71897;BMP280;59767;51.344;12.362;2023-02-15T03:35:07;159239.91;;;2.43
71897;BMP280;59767;51.344;12.362;2023-02-15T03:38:17;159225.56;;;2.38
71897;BMP280;59767;51.344;12.362;2023-02-15T03:41:23;159220.31;;;2.36
71897;BMP280;59767;51.344;12.362;2023-02-15T03:44:31;159209.94;;;2.32
71897;BMP280;59767;51.344;12.362;2023-02-15T03:47:56;159209.94;;;2.32
71897;BMP280;59767;51.344;12.362;2023-02-15T03:51:06;159196.94;;;2.27
71897;BMP280;59767;51.344;12.362;2023-02-15T03:54:31;159206.00;;;2.30
71897;BMP280;59767;51.344;12.362;2023-02-15T03:57:47;159206.00;;;2.30
71897;BMP280;59767;51.344;12.362;2023-02-15T04:01:27;159193.03;;;2.25
71897;BMP280;59767;51.344;12.362;2023-02-15T04:04:52;159191.72;;;2.25
71897;BMP280;59767;51.344;12.362;2023-02-15T04:07:57;159193.03;;;2.25
71897;BMP280;59767;51.344;12.362;2023-02-15T04:11:01;159193.03;;;2.25
71897;BMP280;59767;51.344;12.362;2023-02-15T04:14:05;159185.22;;;2.22
71897;BMP280;59767;51.344;12.362;2023-02-15T04:17:28;159182.56;;;2.21
71897;BMP280;59767;51.344;12.362;2023-02-15T04:20:32;159183.88;;;2.22
71897;BMP280;59767;51.344;12.362;2023-02-15T04:23:55;159174.75;;;2.18
71897;BMP280;59767;51.344;12.362;2023-02-15T04:27:18;159169.56;;;2.16
71897;BMP280;59767;51.344;12.362;2023-02-15T04:30:25;159163.03;;;2.14
71897;BMP280;59767;51.344;12.362;2023-02-15T04:33:29;159148.72;;;2.08
71897;BMP280;59767;51.344;12.362;2023-02-15T04:36:34;159123.97;;;1.99
71897;BMP280;59767;51.344;12.362;2023-02-15T04:39:38;159139.59;;;2.05
71897;BMP280;59767;51.344;12.362;2023-02-15T04:42:42;159142.19;;;2.06
71897;BMP280;59767;51.344;12.362;2023-02-15T04:45:50;159109.63;;;1.93
71897;BMP280;59767;51.344;12.362;2023-02-15T04:48:54;159104.38;;;1.91
71897;BMP280;59767;51.344;12.362;2023-02-15T04:51:59;159095.31;;;1.88
71897;BMP280;59767;51.344;12.362;2023-02-15T04:55:03;159109.63;;;1.93
71897;BMP280;59767;51.344;12.362;2023-02-15T04:58:07;159094.00;;;1.87
71897;BMP280;59767;51.344;12.362;2023-02-15T05:01:11;159091.34;;;1.86
71897;BMP280;59767;51.344;12.362;2023-02-15T05:04:16;159095.31;;;1.88
71897;BMP280;59767;51.344;12.362;2023-02-15T05:07:20;159096.56;;;1.88
71897;BMP280;59767;51.344;12.362;2023-02-15T05:10:24;159087.44;;;1.85
71897;BMP280;59767;51.344;12.362;2023-02-15T05:13:28;159075.78;;;1.80
71897;BMP280;59767;51.344;12.362;2023-02-15T05:16:32;159099.22;;;1.89
71897;BMP280;59767;51.344;12.362;2023-02-15T05:19:37;159091.34;;;1.86
71897;BMP280;59767;51.344;12.362;2023-02-15T05:22:41;159088.75;;;1.85
71897;BMP280;59767;51.344;12.362;2023-02-15T05:25:49;159078.41;;;1.81
71897;BMP280;59767;51.344;12.362;2023-02-15T05:29:12;159052.34;;;1.71
71897;BMP280;59767;51.344;12.362;2023-02-15T05:32:16;159049.75;;;1.70
71897;BMP280;59767;51.344;12.362;2023-02-15T05:35:21;159043.22;;;1.67
71897;BMP280;59767;51.344;12.362;2023-02-15T05:38:25;159035.41;;;1.64
71897;BMP280;59767;51.344;12.362;2023-02-15T05:41:29;159038.00;;;1.65
71897;BMP280;59767;51.344;12.362;2023-02-15T05:44:33;159035.41;;;1.64
71897;BMP280;59767;51.344;12.362;2023-02-15T05:47:37;159034.09;;;1.64
71897;BMP280;59767;51.344;12.362;2023-02-15T05:50:41;159039.31;;;1.66
71897;BMP280;59767;51.344;12.362;2023-02-15T05:53:45;159026.28;;;1.61
71897;BMP280;59767;51.344;12.362;2023-02-15T05:56:49;159045.84;;;1.69
71897;BMP280;59767;51.344;12.362;2023-02-15T05:59:54;159023.69;;;1.60
71897;BMP280;59767;51.344;12.362;2023-02-15T06:02:57;159028.91;;;1.62
71897;BMP280;59767;51.344;12.362;2023-02-15T06:06:01;159028.91;;;1.62
71897;BMP280;59767;51.344;12.362;2023-02-15T06:09:12;159035.41;;;1.64
71897;BMP280;59767;51.344;12.362;2023-02-15T06:12:16;159027.59;;;1.61
71897;BMP280;59767;51.344;12.362;2023-02-15T06:15:21;159018.47;;;1.58
71897;BMP280;59767;51.344;12.362;2023-02-15T06:18:25;159011.97;;;1.55
71897;BMP280;59767;51.344;12.362;2023-02-15T06:21:30;159010.66;;;1.55
71897;BMP280;59767;51.344;12.362;2023-02-15T06:24:34;159000.25;;;1.51
71897;BMP280;59767;51.344;12.362;2023-02-15T06:27:41;159015.88;;;1.57
71897;BMP280;59767;51.344;12.362;2023-02-15T06:30:46;159017.16;;;1.57
71897;BMP280;59767;51.344;12.362;2023-02-15T06:33:50;159039.31;;;1.66
71897;BMP280;59767;51.344;12.362;2023-02-15T06:36:55;159034.09;;;1.64
71897;BMP280;59767;51.344;12.362;2023-02-15T06:39:59;159031.50;;;1.63
71897;BMP280;59767;51.344;12.362;2023-02-15T06:43:06;159028.91;;;1.62
71897;BMP280;59767;51.344;12.362;2023-02-15T06:46:10;159027.59;;;1.61
71897;BMP280;59767;51.344;12.362;2023-02-15T06:49:14;159036.72;;;1.65
71897;BMP280;59767;51.344;12.362;2023-02-15T06:52:19;159048.44;;;1.70
71897;BMP280;59767;51.344;12.362;2023-02-15T06:55:23;159036.72;;;1.65
71897;BMP280;59767;51.344;12.362;2023-02-15T06:58:28;159035.41;;;1.64
71897;BMP280;59767;51.344;12.362;2023-02-15T07:01:32;159036.72;;;1.65
71897;BMP280;59767;51.344;12.362;2023-02-15T07:04:36;159043.22;;;1.67
71897;BMP280;59767;51.344;12.362;2023-02-15T07:07:41;159053.66;;;1.72
71897;BMP280;59767;51.344;12.362;2023-02-15T07:10:45;159041.88;;;1.67
71897;BMP280;59767;51.344;12.362;2023-02-15T07:13:49;159053.66;;;1.72
71897;BMP280;59767;51.344;12.362;2023-02-15T07:16:53;159097.88;;;1.89
71897;BMP280;59767;51.344;12.362;2023-02-15T07:20:00;159081.00;;;1.82
71897;BMP280;59767;51.344;12.362;2023-02-15T07:23:04;159094.00;;;1.87
71897;BMP280;59767;51.344;12.362;2023-02-15T07:26:08;159099.22;;;1.89
71897;BMP280;59767;51.344;12.362;2023-02-15T07:29:13;159103.13;;;1.91
71897;BMP280;59767;51.344;12.362;2023-02-15T07:32:17;159107.03;;;1.92
71897;BMP280;59767;51.344;12.362;2023-02-15T07:35:21;159112.19;;;1.94
71897;BMP280;59767;51.344;12.362;2023-02-15T07:38:26;159127.88;;;2.00
71897;BMP280;59767;51.344;12.362;2023-02-15T07:41:30;159140.88;;;2.05
71897;BMP280;59767;51.344;12.362;2023-02-15T07:44:34;159147.41;;;2.08
71897;BMP280;59767;51.344;12.362;2023-02-15T07:47:38;159178.66;;;2.20
71897;BMP280;59767;51.344;12.362;2023-02-15T07:50:43;159185.22;;;2.22
71897;BMP280;59767;51.344;12.362;2023-02-15T07:53:47;159216.41;;;2.34
71897;BMP280;59767;51.344;12.362;2023-02-15T07:56:51;159224.22;;;2.37
71897;BMP280;59767;51.344;12.362;2023-02-15T07:59:55;159237.28;;;2.42
71897;BMP280;59767;51.344;12.362;2023-02-15T08:02:59;159220.31;;;2.36
71897;BMP280;59767;51.344;12.362;2023-02-15T08:06:21;159243.81;;;2.45
71897;BMP280;59767;51.344;12.362;2023-02-15T08:09:25;159288.06;;;2.62
71897;BMP280;59767;51.344;12.362;2023-02-15T08:12:29;159279.00;;;2.58
71897;BMP280;59767;51.344;12.362;2023-02-15T08:15:34;159286.75;;;2.61
71897;BMP280;59767;51.344;12.362;2023-02-15T08:18:37;159312.84;;;2.71
71897;BMP280;59767;51.344;12.362;2023-02-15T08:21:52;159334.97;;;2.80
71897;BMP280;59767;51.344;12.362;2023-02-15T08:24:56;159408.00;;;3.08
71897;BMP280;59767;51.344;12.362;2023-02-15T08:28:01;159526.56;;;3.53
71897;BMP280;59767;51.344;12.362;2023-02-15T08:31:09;159638.69;;;3.97
71897;BMP280;59767;51.344;12.362;2023-02-15T08:34:16;159703.91;;;4.22
71897;BMP280;59767;51.344;12.362;2023-02-15T08:37:20;159740.38;;;4.36
71897;BMP280;59767;51.344;12.362;2023-02-15T08:40:24;159826.50;;;4.69
71897;BMP280;59767;51.344;12.362;2023-02-15T08:43:28;159886.50;;;4.92
71897;BMP280;59767;51.344;12.362;2023-02-15T08:46:34;159936.06;;;5.11
71897;BMP280;59767;51.344;12.362;2023-02-15T08:49:39;159968.69;;;5.23
71897;BMP280;59767;51.344;12.362;2023-02-15T08:52:43;160022.19;;;5.44
71897;BMP280;59767;51.344;12.362;2023-02-15T08:55:55;160074.44;;;5.64
71897;BMP280;59767;51.344;12.362;2023-02-15T08:58:59;160087.41;;;5.69
71897;BMP280;59767;51.344;12.362;2023-02-15T09:02:03;160118.78;;;5.81
71897;BMP280;59767;51.344;12.362;2023-02-15T09:05:08;160101.81;;;5.74
71897;BMP280;59767;51.344;12.362;2023-02-15T09:08:13;160108.31;;;5.77
71897;BMP280;59767;51.344;12.362;2023-02-15T09:11:21;160121.34;;;5.82
71897;BMP280;59767;51.344;12.362;2023-02-15T09:14:29;160142.25;;;5.90
71897;BMP280;59767;51.344;12.362;2023-02-15T09:17:33;160190.59;;;6.09
71897;BMP280;59767;51.344;12.362;2023-02-15T09:20:36;160271.47;;;6.40
71897;BMP280;59767;51.344;12.362;2023-02-15T09:23:42;160305.44;;;6.53
71897;BMP280;59767;51.344;12.362;2023-02-15T09:26:47;160387.72;;;6.84
71897;BMP280;59767;51.344;12.362;2023-02-15T09:29:51;160416.44;;;6.95
71897;BMP280;59767;51.344;12.362;2023-02-15T09:32:56;160422.97;;;6.98
71897;BMP280;59767;51.344;12.362;2023-02-15T09:36:00;160394.22;;;6.87
71897;BMP280;59767;51.344;12.362;2023-02-15T09:39:18;160375.97;;;6.80
71897;BMP280;59767;51.344;12.362;2023-02-15T09:52:35;160377.22;;;6.80
71897;BMP280;59767;51.344;12.362;2023-02-15T09:56:05;160399.44;;;6.89
71897;BMP280;59767;51.344;12.362;2023-02-15T10:02:51;160366.78;;;6.76
71897;BMP280;59767;51.344;12.362;2023-02-15T10:06:32;160351.16;;;6.70
71897;BMP280;59767;51.344;12.362;2023-02-15T10:16:56;160349.84;;;6.70
71897;BMP280;59767;51.344;12.362;2023-02-15T10:26:48;160428.22;;;7.00
71897;BMP280;59767;51.344;12.362;2023-02-15T10:33:03;160445.16;;;7.06
71897;BMP280;59767;51.344;12.362;2023-02-15T10:36:11;160479.13;;;7.19
71897;BMP280;59767;51.344;12.362;2023-02-15T10:45:53;160570.59;;;7.54
71897;BMP280;59767;51.344;12.362;2023-02-15T11:02:37;160748.22;;;8.22
71897;BMP280;59767;51.344;12.362;2023-02-15T11:06:09;160748.22;;;8.22
71897;BMP280;59767;51.344;12.362;2023-02-15T11:09:16;160757.41;;;8.26
71897;BMP280;59767;51.344;12.362;2023-02-15T11:12:24;160762.59;;;8.28
71897;BMP280;59767;51.344;12.362;2023-02-15T11:15:36;160796.59;;;8.41
71897;BMP280;59767;51.344;12.362;2023-02-15T11:18:48;160821.44;;;8.50
71897;BMP280;59767;51.344;12.362;2023-02-15T11:21:57;160839.75;;;8.57
71897;BMP280;59767;51.344;12.362;2023-02-15T11:25:15;160884.16;;;8.74
71897;BMP280;59767;51.344;12.362;2023-02-15T11:28:33;160881.56;;;8.73
71897;BMP280;59767;51.344;12.362;2023-02-15T11:31:46;160885.47;;;8.75
71897;BMP280;59767;51.344;12.362;2023-02-15T11:38:18;160889.41;;;8.76
71897;BMP280;59767;51.344;12.362;2023-02-15T11:41:28;160881.56;;;8.73
71897;BMP280;59767;51.344;12.362;2023-02-15T11:44:36;160898.59;;;8.80
71897;BMP280;59767;51.344;12.362;2023-02-15T11:47:41;160939.09;;;8.96
71897;BMP280;59767;51.344;12.362;2023-02-15T11:50:45;160940.41;;;8.96
71897;BMP280;59767;51.344;12.362;2023-02-15T11:53:50;160948.25;;;8.99
71897;BMP280;59767;51.344;12.362;2023-02-15T11:57:42;160960.00;;;9.04
71897;BMP280;59767;51.344;12.362;2023-02-15T12:00:30;160987.44;;;9.14
71897;BMP280;59767;51.344;12.362;2023-02-15T12:03:47;161000.50;;;9.19
71897;BMP280;59767;51.344;12.362;2023-02-15T12:10:17;161035.78;;;9.33
71897;BMP280;59767;51.344;12.362;2023-02-15T12:13:23;161051.50;;;9.39
71897;BMP280;59767;51.344;12.362;2023-02-15T12:16:32;161063.28;;;9.43
71897;BMP280;59767;51.344;12.362;2023-02-15T12:19:39;161085.47;;;9.52
71897;BMP280;59767;51.344;12.362;2023-02-15T12:22:53;161092.00;;;9.54
71897;BMP280;59767;51.344;12.362;2023-02-15T12:25:58;161114.31;;;9.63
71897;BMP280;59767;51.344;12.362;2023-02-15T12:29:23;161140.38;;;9.73
71897;BMP280;59767;51.344;12.362;2023-02-15T12:32:34;161149.56;;;9.76
71897;BMP280;59767;51.344;12.362;2023-02-15T12:35:39;161170.50;;;9.84
71897;BMP280;59767;51.344;12.362;2023-02-15T12:38:48;161191.41;;;9.92
71897;BMP280;59767;51.344;12.362;2023-02-15T12:42:15;161201.88;;;9.96
71897;BMP280;59767;51.344;12.362;2023-02-15T12:48:23;161220.19;;;10.03
71897;BMP280;59767;51.344;12.362;2023-02-15T12:51:27;161226.75;;;10.06
71897;BMP280;59767;51.344;12.362;2023-02-15T12:54:33;161238.53;;;10.10
71897;BMP280;59767;51.344;12.362;2023-02-15T12:57:40;161247.66;;;10.14
71897;BMP280;59767;51.344;12.362;2023-02-15T13:00:47;161258.13;;;10.18
71897;BMP280;59767;51.344;12.362;2023-02-15T13:03:58;161275.13;;;10.24
71897;BMP280;59767;51.344;12.362;2023-02-15T13:07:04;161271.19;;;10.23
71897;BMP280;59767;51.344;12.362;2023-02-15T13:10:22;161302.59;;;10.35
71897;BMP280;59767;51.344;12.362;2023-02-15T13:13:30;161310.47;;;10.38
71897;BMP280;59767;51.344;12.362;2023-02-15T13:16:37;161302.59;;;10.35
71897;BMP280;59767;51.344;12.362;2023-02-15T13:19:51;161326.13;;;10.44
71897;BMP280;59767;51.344;12.362;2023-02-15T13:23:03;161336.59;;;10.48
71897;BMP280;59767;51.344;12.362;2023-02-15T13:26:14;161323.53;;;10.43
71897;BMP280;59767;51.344;12.362;2023-02-15T13:29:32;161345.78;;;10.51
71897;BMP280;59767;51.344;12.362;2023-02-15T13:32:40;161343.13;;;10.50
71897;BMP280;59767;51.344;12.362;2023-02-15T13:36:04;161343.13;;;10.50
71897;BMP280;59767;51.344;12.362;2023-02-15T13:42:36;161356.22;;;10.55
71897;BMP280;59767;51.344;12.362;2023-02-15T13:49:35;161373.25;;;10.62
71897;BMP280;59767;51.344;12.362;2023-02-15T13:52:57;161434.75;;;10.85
71897;BMP280;59767;51.344;12.362;2023-02-15T13:59:41;161476.63;;;11.01
71897;BMP280;59767;51.344;12.362;2023-02-15T14:03:15;161449.16;;;10.91
71897;BMP280;59767;51.344;12.362;2023-02-15T14:16:41;161382.41;;;10.65
71897;BMP280;59767;51.344;12.362;2023-02-15T14:26:55;161378.47;;;10.64
71897;BMP280;59767;51.344;12.362;2023-02-15T14:30:14;161365.41;;;10.59
71897;BMP280;59767;51.344;12.362;2023-02-15T14:36:37;161364.06;;;10.58
71897;BMP280;59767;51.344;12.362;2023-02-15T14:39:52;161378.47;;;10.64
71897;BMP280;59767;51.344;12.362;2023-02-15T14:49:40;161323.53;;;10.43
71897;BMP280;59767;51.344;12.362;2023-02-15T14:56:21;161290.84;;;10.30
71897;BMP280;59767;51.344;12.362;2023-02-15T14:59:27;161289.53;;;10.30
71897;BMP280;59767;51.344;12.362;2023-02-15T15:02:48;161273.81;;;10.24
71897;BMP280;59767;51.344;12.362;2023-02-15T15:06:02;161247.66;;;10.14
71897;BMP280;59767;51.344;12.362;2023-02-15T15:18:46;161188.81;;;9.91
71897;BMP280;59767;51.344;12.362;2023-02-15T15:21:55;161175.75;;;9.86
71897;BMP280;59767;51.344;12.362;2023-02-15T15:25:00;161169.16;;;9.84
71897;BMP280;59767;51.344;12.362;2023-02-15T15:28:05;161157.44;;;9.79
71897;BMP280;59767;51.344;12.362;2023-02-15T15:34:47;161173.09;;;9.85
71897;BMP280;59767;51.344;12.362;2023-02-15T15:51:30;161080.28;;;9.50
71897;BMP280;59767;51.344;12.362;2023-02-15T15:54:38;161067.22;;;9.45
71897;BMP280;59767;51.344;12.362;2023-02-15T15:57:46;161055.44;;;9.40
71897;BMP280;59767;51.344;12.362;2023-02-15T16:00:58;161039.78;;;9.34
71897;BMP280;59767;51.344;12.362;2023-02-15T16:04:03;161025.34;;;9.29
71897;BMP280;59767;51.344;12.362;2023-02-15T16:10:26;160994.00;;;9.17
71897;BMP280;59767;51.344;12.362;2023-02-15T16:13:30;160996.59;;;9.18
71897;BMP280;59767;51.344;12.362;2023-02-15T16:16:35;160980.91;;;9.12
71897;BMP280;59767;51.344;12.362;2023-02-15T16:19:40;160978.25;;;9.11
71897;BMP280;59767;51.344;12.362;2023-02-15T16:22:48;160960.00;;;9.04
71897;BMP280;59767;51.344;12.362;2023-02-15T16:29:17;160932.50;;;8.93
71897;BMP280;59767;51.344;12.362;2023-02-15T16:32:25;160948.25;;;8.99
71897;BMP280;59767;51.344;12.362;2023-02-15T16:35:30;160936.44;;;8.94
71897;BMP280;59767;51.344;12.362;2023-02-15T16:41:47;160903.75;;;8.82
71897;BMP280;59767;51.344;12.362;2023-02-15T16:44:57;160871.09;;;8.69
71897;BMP280;59767;51.344;12.362;2023-02-15T16:48:13;160851.47;;;8.62
71897;BMP280;59767;51.344;12.362;2023-02-15T16:51:25;160829.25;;;8.53
71897;BMP280;59767;51.344;12.362;2023-02-15T16:54:31;160831.91;;;8.54
71897;BMP280;59767;51.344;12.362;2023-02-15T16:57:37;160825.31;;;8.52
71897;BMP280;59767;51.344;12.362;2023-02-15T17:00:42;160797.94;;;8.41
71897;BMP280;59767;51.344;12.362;2023-02-15T17:03:49;160783.50;;;8.36
71897;BMP280;59767;51.344;12.362;2023-02-15T17:07:06;160757.41;;;8.26
71897;BMP280;59767;51.344;12.362;2023-02-15T17:10:28;160723.41;;;8.13
71897;BMP280;59767;51.344;12.362;2023-02-15T17:13:33;160698.59;;;8.03
71897;BMP280;59767;51.344;12.362;2023-02-15T17:16:45;160693.34;;;8.01
71897;BMP280;59767;51.344;12.362;2023-02-15T17:19:54;160689.47;;;8.00
71897;BMP280;59767;51.344;12.362;2023-02-15T17:23:02;160684.22;;;7.98
71897;BMP280;59767;51.344;12.362;2023-02-15T17:26:16;160727.34;;;8.14
71897;BMP280;59767;51.344;12.362;2023-02-15T17:29:37;160677.69;;;7.95
71897;BMP280;59767;51.344;12.362;2023-02-15T17:32:53;160648.94;;;7.84
71897;BMP280;59767;51.344;12.362;2023-02-15T17:36:18;160612.34;;;7.70
71897;BMP280;59767;51.344;12.362;2023-02-15T17:39:26;160601.91;;;7.66
71897;BMP280;59767;51.344;12.362;2023-02-15T17:42:31;160603.25;;;7.67
71897;BMP280;59767;51.344;12.362;2023-02-15T17:45:47;160586.22;;;7.60
71897;BMP280;59767;51.344;12.362;2023-02-15T17:48:53;160583.63;;;7.59
71897;BMP280;59767;51.344;12.362;2023-02-15T17:51:58;160565.34;;;7.52
71897;BMP280;59767;51.344;12.362;2023-02-15T17:55:12;160549.63;;;7.46
71897;BMP280;59767;51.344;12.362;2023-02-15T17:58:38;160539.19;;;7.42
71897;BMP280;59767;51.344;12.362;2023-02-15T18:01:45;160541.84;;;7.43
71897;BMP280;59767;51.344;12.362;2023-02-15T18:05:13;160550.97;;;7.47
71897;BMP280;59767;51.344;12.362;2023-02-15T18:08:35;160552.25;;;7.47
71897;BMP280;59767;51.344;12.362;2023-02-15T18:11:58;160567.94;;;7.53
71897;BMP280;59767;51.344;12.362;2023-02-15T18:15:04;160553.56;;;7.48
71897;BMP280;59767;51.344;12.362;2023-02-15T18:18:11;160544.44;;;7.44
71897;BMP280;59767;51.344;12.362;2023-02-15T18:21:15;160530.09;;;7.39
71897;BMP280;59767;51.344;12.362;2023-02-15T18:24:21;160514.38;;;7.33
71897;BMP280;59767;51.344;12.362;2023-02-15T18:27:27;160501.28;;;7.28
71897;BMP280;59767;51.344;12.362;2023-02-15T18:30:31;160502.63;;;7.28
71897;BMP280;59767;51.344;12.362;2023-02-15T18:33:39;160501.28;;;7.28
71897;BMP280;59767;51.344;12.362;2023-02-15T18:36:44;160492.19;;;7.24
71897;BMP280;59767;51.344;12.362;2023-02-15T18:39:49;160500.03;;;7.27
71897;BMP280;59767;51.344;12.362;2023-02-15T18:42:57;160500.03;;;7.27
71897;BMP280;59767;51.344;12.362;2023-02-15T18:46:01;160501.28;;;7.28
71897;BMP280;59767;51.344;12.362;2023-02-15T18:49:05;160496.09;;;7.26
71897;BMP280;59767;51.344;12.362;2023-02-15T18:52:17;160502.63;;;7.28
71897;BMP280;59767;51.344;12.362;2023-02-15T18:55:26;160522.19;;;7.36
71897;BMP280;59767;51.344;12.362;2023-02-15T18:58:30;160548.38;;;7.46
71897;BMP280;59767;51.344;12.362;2023-02-15T19:01:34;160564.00;;;7.52
71897;BMP280;59767;51.344;12.362;2023-02-15T19:04:39;160583.63;;;7.59
71897;BMP280;59767;51.344;12.362;2023-02-15T19:07:43;160575.81;;;7.56
71897;BMP280;59767;51.344;12.362;2023-02-15T19:10:54;160570.59;;;7.54
71897;BMP280;59767;51.344;12.362;2023-02-15T19:13:58;160560.09;;;7.50
71897;BMP280;59767;51.344;12.362;2023-02-15T19:17:03;160544.44;;;7.44
71897;BMP280;59767;51.344;12.362;2023-02-15T19:20:17;160545.78;;;7.45
71897;BMP280;59767;51.344;12.362;2023-02-15T19:23:23;160518.31;;;7.34
71897;BMP280;59767;51.344;12.362;2023-02-15T19:26:27;160496.09;;;7.26
71897;BMP280;59767;51.344;12.362;2023-02-15T19:29:49;160486.97;;;7.22
71897;BMP280;59767;51.344;12.362;2023-02-15T19:32:54;160479.13;;;7.19
71897;BMP280;59767;51.344;12.362;2023-02-15T19:35:58;160462.13;;;7.13
71897;BMP280;59767;51.344;12.362;2023-02-15T19:39:02;160432.06;;;7.01
71897;BMP280;59767;51.344;12.362;2023-02-15T19:42:13;160424.28;;;6.98
71897;BMP280;59767;51.344;12.362;2023-02-15T19:45:20;160395.56;;;6.87
71897;BMP280;59767;51.344;12.362;2023-02-15T19:48:24;160377.22;;;6.80
71897;BMP280;59767;51.344;12.362;2023-02-15T19:51:29;160374.63;;;6.79
71897;BMP280;59767;51.344;12.362;2023-02-15T19:54:33;160353.75;;;6.71
71897;BMP280;59767;51.344;12.362;2023-02-15T19:57:38;160340.66;;;6.66
71897;BMP280;59767;51.344;12.362;2023-02-15T20:00:42;160327.63;;;6.61
71897;BMP280;59767;51.344;12.362;2023-02-15T20:03:46;160318.53;;;6.58
71897;BMP280;59767;51.344;12.362;2023-02-15T20:06:53;160339.41;;;6.66
71897;BMP280;59767;51.344;12.362;2023-02-15T20:09:57;160315.88;;;6.57
71897;BMP280;59767;51.344;12.362;2023-02-15T20:13:02;160283.25;;;6.44
71897;BMP280;59767;51.344;12.362;2023-02-15T20:16:06;160266.25;;;6.38
71897;BMP280;59767;51.344;12.362;2023-02-15T20:19:13;160270.16;;;6.39
71897;BMP280;59767;51.344;12.362;2023-02-15T20:22:26;160244.09;;;6.29
71897;BMP280;59767;51.344;12.362;2023-02-15T20:25:32;160233.59;;;6.25
71897;BMP280;59767;51.344;12.362;2023-02-15T20:28:36;160202.31;;;6.13
71897;BMP280;59767;51.344;12.362;2023-02-15T20:31:41;160199.66;;;6.12